Aeroporto :
LOGIN :

Iscrizione | Disclaimer

   EN    FR    IT 

 










Sommario :    VFR   VFR Marginale   IFR   IFR Intensivo   IFR Molto Intensivo
Visibilità : 
Base nubi : 
>= 8 km
>= 3000ft
5 / 8 km
1000 / 3000 ft
1500m / 5 km
500 / 1000 ft
800 / 1500m
200 / 500 ft
< 800m
< 200 ft
Simboli :   Temporali  Nebbia  Neve Forte  Precipitazioni Forti  Vento > 20 kt
SIGMETs :   Varie  Temporali  Ghiacco  Turbolenza  Onda orograficha  Ceneri Vulcaniche






- Altitudine del aeroporto : 297 ft


EGVP - Middle Wallop

ULTIMO METAR :
  • 281750Z 24009KT 9999 SCT031 BKN100 BKN120 09/06 Q1004 TEMPO 7000 -SHRA SCT020 RMK BLU TEMPO WHT

METARs OBSOLETI :
  • 281720Z 24008KT CAVOK 09/06 Q1003 NOSIG RMK BLU BLU
  • 281650Z 24009KT CAVOK 09/06 Q1003 NOSIG RMK BLU BLU
  • 281620Z 24012KT CAVOK 09/07 Q1002 NOSIG RMK BLU BLU
  • 281550Z 24010KT CAVOK 09/07 Q1002 NOSIG RMK BLU BLU
  • 281520Z 24007KT CAVOK 10/08 Q1002 NOSIG RMK BLU BLU
  • 281450Z 25011KT 9999 FEW015 SCT110CB 09/08 Q1002 NOSIG RMK BLU BLU

TAF TAF EGVP
Valido dal 28 a 18 ore il 29 a 00 ore UTC


281639Z 2818/2824 24012KT 9999 FEW025
PROB30
TEMPO 2818/2822 7000 SHRA SCT020
ATIS : +44 1980 674 142



MetMap, La meteo Aeronautica in un colpo d'occhio ! - Copyright ORBIFLY Dicembre 2007 - Disclaimer

ORBIFLY MET'MAP TEAM :

Programmazione e sviluppo : Alexandra Zaïnal
Concezione : Baudouin d'Aumeries
Aiuto per la programmazione : Marc-Olivier Méhu
Supporto tecnico e logistico : Manuel Goepfert
Aiuto per la traduzione : Arnaldo La Scala

Contatto : metmap@orbifly.com




FONTI E CREDITI :

   NOAA